Time,TemperatureF,DewpointF,PressureIn,WindDirection,WindDirectionDegrees,WindSpeedMPH,WindSpeedGustMPH,Humidity,HourlyPrecipIn,Conditions,Clouds,dailyrainin,SoftwareType,DateUTC
2013-08-09 00:11:00,70.8,70.0,29.93,WNW,294,0.0,0.0,96,0.00,,,0.00,weatherlink.com 1.10,2013-08-09 04:11:00,
2013-08-09 00:26:00,70.7,70.0,29.93,WNW,294,0.0,1.0,96,0.00,,,0.00,weatherlink.com 1.10,2013-08-09 04:26:00,
2013-08-09 00:41:00,70.5,69.0,29.93,WNW,294,0.0,0.0,96,0.00,,,0.00,weatherlink.com 1.10,2013-08-09 04:41:00,
2013-08-09 00:56:00,70.5,69.0,29.93,WNW,294,0.0,0.0,96,0.00,,,0.00,weatherlink.com 1.10,2013-08-09 04:56:00,
2013-08-09 01:11:00,70.6,70.0,29.93,WNW,294,0.0,0.0,97,0.00,,,0.00,weatherlink.com 1.10,2013-08-09 05:11:00,
2013-08-09 01:26:00,70.7,70.0,29.93,WNW,294,0.0,0.0,97,0.00,,,0.00,weatherlink.com 1.10,2013-08-09 05:26:00,
2013-08-09 01:41:00,70.8,70.0,29.93,WNW,293,0.0,0.0,97,0.00,,,0.00,weatherlink.com 1.10,2013-08-09 05:41:00,
2013-08-09 01:56:00,70.9,70.0,29.92,WNW,294,0.0,0.0,97,0.00,,,0.00,weatherlink.com 1.10,2013-08-09 05:56:00,
2013-08-09 02:11:00,70.9,70.0,29.92,WNW,294,0.0,0.0,97,0.00,,,0.00,weatherlink.com 1.10,2013-08-09 06:11:00,
2013-08-09 02:26:00,70.9,70.0,29.92,WNW,294,0.0,0.0,97,0.00,,,0.00,weatherlink.com 1.10,2013-08-09 06:26:00,
2013-08-09 02:41:00,71.0,70.0,29.92,WNW,294,0.0,0.0,97,0.00,,,0.00,weatherlink.com 1.10,2013-08-09 06:41:00,
2013-08-09 02:56:00,71.1,70.0,29.92,WNW,294,0.0,0.0,97,0.00,,,0.00,weatherlink.com 1.10,2013-08-09 06:56:00,
2013-08-09 03:11:00,71.4,71.0,29.92,WNW,294,0.0,1.0,97,0.00,,,0.00,weatherlink.com 1.10,2013-08-09 07:11:00,
2013-08-09 03:26:00,71.5,71.0,29.92,WNW,294,0.0,0.0,97,0.00,,,0.00,weatherlink.com 1.10,2013-08-09 07:26:00,
2013-08-09 03:41:00,71.5,71.0,29.92,WNW,294,0.0,1.0,97,0.00,,,0.00,weatherlink.com 1.10,2013-08-09 07:41:00,
2013-08-09 03:56:00,71.5,71.0,29.92,WNW,294,0.0,0.0,97,0.00,,,0.00,weatherlink.com 1.10,2013-08-09 07:56:00,
2013-08-09 04:11:00,71.6,71.0,29.92,WNW,285,0.0,0.0,97,0.00,,,0.00,weatherlink.com 1.10,2013-08-09 08:11:00,
2013-08-09 04:26:00,71.5,71.0,29.92,WNW,285,0.0,0.0,97,0.00,,,0.00,weatherlink.com 1.10,2013-08-09 08:26:00,
2013-08-09 04:41:00,71.6,71.0,29.92,WNW,285,0.0,1.0,97,0.00,,,0.00,weatherlink.com 1.10,2013-08-09 08:41:00,
2013-08-09 04:56:00,71.7,71.0,29.92,West,280,0.0,0.0,97,0.00,,,0.00,weatherlink.com 1.10,2013-08-09 08:56:00,
2013-08-09 05:11:00,71.8,71.0,29.91,West,276,0.0,2.0,97,0.00,,,0.00,weatherlink.com 1.10,2013-08-09 09:11:00,
2013-08-09 05:26:00,72.0,71.0,29.91,WSW,240,0.0,1.0,97,0.00,,,0.00,weatherlink.com 1.10,2013-08-09 09:26:00,
2013-08-09 05:41:00,71.9,71.0,29.91,SW,228,0.0,1.0,97,0.00,,,0.00,weatherlink.com 1.10,2013-08-09 09:41:00,
2013-08-09 05:56:00,71.6,71.0,29.91,SW,228,0.0,0.0,97,0.00,,,0.00,weatherlink.com 1.10,2013-08-09 09:56:00,
2013-08-09 06:11:00,71.6,71.0,29.91,SW,228,0.0,0.0,97,0.00,,,0.00,weatherlink.com 1.10,2013-08-09 10:11:00,
2013-08-09 06:26:00,71.9,71.0,29.91,West,280,0.0,1.0,97,0.00,,,0.00,weatherlink.com 1.10,2013-08-09 10:26:00,
2013-08-09 06:41:00,71.9,71.0,29.92,West,281,0.0,0.0,97,0.00,,,0.00,weatherlink.com 1.10,2013-08-09 10:41:00,
2013-08-09 06:56:00,72.0,71.0,29.92,West,280,0.0,0.0,97,0.00,,,0.00,weatherlink.com 1.10,2013-08-09 10:56:00,
2013-08-09 07:11:00,72.2,71.0,29.91,SW,221,0.0,1.0,97,0.00,,,0.00,weatherlink.com 1.10,2013-08-09 11:11:00,
2013-08-09 07:26:00,72.4,72.0,29.91,West,274,0.0,2.0,97,0.00,,,0.00,weatherlink.com 1.10,2013-08-09 11:26:00,
2013-08-09 07:41:00,72.5,72.0,29.91,WSW,255,0.0,1.0,97,0.00,,,0.00,weatherlink.com 1.10,2013-08-09 11:41:00,
2013-08-09 07:56:00,72.6,72.0,29.91,West,270,0.0,1.0,97,0.00,,,0.00,weatherlink.com 1.10,2013-08-09 11:56:00,
2013-08-09 08:11:00,72.7,72.0,29.91,West,280,1.0,3.0,97,0.00,,,0.00,weatherlink.com 1.10,2013-08-09 12:11:00,
2013-08-09 08:26:00,72.9,72.0,29.91,West,278,0.0,3.0,97,0.00,,,0.00,weatherlink.com 1.10,2013-08-09 12:26:00,
2013-08-09 08:41:00,73.0,72.0,29.91,West,271,2.0,4.0,97,0.00,,,0.00,weatherlink.com 1.10,2013-08-09 12:41:00,
2013-08-09 08:56:00,73.0,72.0,29.91,West,274,0.0,5.0,97,0.00,,,0.00,weatherlink.com 1.10,2013-08-09 12:56:00,
2013-08-09 09:11:00,73.1,72.0,29.91,SW,229,3.0,4.0,96,0.00,,,0.00,weatherlink.com 1.10,2013-08-09 13:11:00,
2013-08-09 09:26:00,73.2,72.0,29.91,WSW,249,3.0,3.0,96,0.00,,,0.00,weatherlink.com 1.10,2013-08-09 13:26:00,
2013-08-09 09:41:00,73.3,72.0,29.91,WSW,257,0.0,3.0,96,0.00,,,0.00,weatherlink.com 1.10,2013-08-09 13:41:00,
2013-08-09 09:56:00,73.5,72.0,29.91,WNW,290,1.0,4.0,96,0.00,,,0.00,weatherlink.com 1.10,2013-08-09 13:56:00,
2013-08-09 10:11:00,74.0,73.0,29.91,WSW,248,0.0,4.0,96,0.00,,,0.00,weatherlink.com 1.10,2013-08-09 14:11:00,
2013-08-09 10:26:00,74.3,73.0,29.91,WNW,289,2.0,4.0,96,0.00,,,0.00,weatherlink.com 1.10,2013-08-09 14:26:00,
2013-08-09 10:41:00,74.7,73.0,29.91,West,260,0.0,6.0,95,0.00,,,0.00,weatherlink.com 1.10,2013-08-09 14:41:00,
2013-08-09 10:57:00,74.9,73.0,29.91,WNW,288,3.0,5.0,94,0.00,,,0.00,weatherlink.com 1.10,2013-08-09 14:57:00,
2013-08-09 11:12:00,75.7,74.0,29.91,South,190,2.0,4.0,94,0.00,,,0.00,weatherlink.com 1.10,2013-08-09 15:12:00,
2013-08-09 11:27:00,76.5,74.0,29.91,West,260,4.0,8.0,91,0.00,,,0.00,weatherlink.com 1.10,2013-08-09 15:27:00,
2013-08-09 11:42:00,76.9,74.0,29.90,WNW,284,3.0,7.0,91,0.00,,,0.00,weatherlink.com 1.10,2013-08-09 15:42:00,
2013-08-09 11:57:00,77.5,73.0,29.90,NW,318,2.0,9.0,86,0.01,,,0.01,weatherlink.com 1.10,2013-08-09 15:57:00,
2013-08-09 12:12:00,76.6,73.0,29.90,West,278,1.0,5.0,89,0.01,,,0.01,weatherlink.com 1.10,2013-08-09 16:12:00,
2013-08-09 12:27:00,76.1,73.0,29.90,SE,129,1.0,9.0,90,0.01,,,0.01,weatherlink.com 1.10,2013-08-09 16:27:00,
2013-08-09 12:42:00,76.6,74.0,29.91,West,264,0.0,5.0,90,0.01,,,0.01,weatherlink.com 1.10,2013-08-09 16:42:00,
2013-08-09 12:57:00,76.2,74.0,29.91,SSW,200,0.0,6.0,91,0.00,,,0.01,weatherlink.com 1.10,2013-08-09 16:57:00,
2013-08-09 13:12:00,76.2,74.0,29.91,South,184,1.0,3.0,92,0.00,,,0.01,weatherlink.com 1.10,2013-08-09 17:12:00,
2013-08-09 13:27:00,76.1,73.0,29.91,West,270,2.0,3.0,91,0.02,,,0.03,weatherlink.com 1.10,2013-08-09 17:27:00,
2013-08-09 13:42:00,77.0,75.0,29.92,WNW,288,2.0,3.0,94,0.02,,,0.03,weatherlink.com 1.10,2013-08-09 17:42:00,
2013-08-09 13:57:00,79.1,76.0,29.91,NW,304,3.0,4.0,89,0.02,,,0.03,weatherlink.com 1.10,2013-08-09 17:57:00,
2013-08-09 14:12:00,79.0,74.0,29.91,WNW,298,0.0,4.0,85,0.02,,,0.03,weatherlink.com 1.10,2013-08-09 18:12:00,
2013-08-09 14:27:00,79.9,74.0,29.92,West,264,0.0,4.0,82,0.00,,,0.03,weatherlink.com 1.10,2013-08-09 18:27:00,
2013-08-09 14:42:00,81.0,75.0,29.92,WNW,282,0.0,6.0,82,0.00,,,0.03,weatherlink.com 1.10,2013-08-09 18:42:00,
2013-08-09 14:57:00,81.4,74.0,29.92,WSW,254,2.0,6.0,77,0.00,,,0.03,weatherlink.com 1.10,2013-08-09 18:57:00,
2013-08-09 15:12:00,79.7,73.0,29.92,SW,218,0.0,4.0,79,0.00,,,0.03,weatherlink.com 1.10,2013-08-09 19:12:00,
2013-08-09 15:27:00,79.7,73.0,29.92,West,279,1.0,3.0,81,0.00,,,0.03,weatherlink.com 1.10,2013-08-09 19:27:00,
2013-08-09 15:42:00,78.9,73.0,29.92,South,183,0.0,4.0,81,0.00,,,0.03,weatherlink.com 1.10,2013-08-09 19:42:00,
2013-08-09 15:57:00,78.6,72.0,29.92,NNE,33,1.0,2.0,81,0.00,,,0.03,weatherlink.com 1.10,2013-08-09 19:57:00,
2013-08-09 16:12:00,77.6,73.0,29.92,East,85,0.0,3.0,84,0.00,,,0.03,weatherlink.com 1.10,2013-08-09 20:12:00,
2013-08-09 16:27:00,78.3,72.0,29.92,West,264,2.0,4.0,82,0.00,,,0.03,weatherlink.com 1.10,2013-08-09 20:27:00,
2013-08-09 16:42:00,79.8,73.0,29.92,WSW,255,1.0,3.0,79,0.00,,,0.03,weatherlink.com 1.10,2013-08-09 20:42:00,
2013-08-09 16:57:00,78.2,72.0,29.93,WNW,284,1.0,2.0,80,0.00,,,0.03,weatherlink.com 1.10,2013-08-09 20:57:00,
2013-08-09 17:12:00,77.4,71.0,29.93,SE,129,1.0,5.0,81,0.00,,,0.03,weatherlink.com 1.10,2013-08-09 21:12:00,
2013-08-09 17:27:00,77.5,71.0,29.93,South,187,0.0,2.0,81,0.00,,,0.03,weatherlink.com 1.10,2013-08-09 21:27:00,
2013-08-09 17:42:00,77.8,71.0,29.93,ESE,115,1.0,2.0,80,0.00,,,0.03,weatherlink.com 1.10,2013-08-09 21:42:00,
2013-08-09 17:57:00,78.7,71.0,29.93,West,277,0.0,3.0,78,0.00,,,0.03,weatherlink.com 1.10,2013-08-09 21:57:00,
2013-08-09 18:12:00,79.2,71.0,29.93,SSW,206,0.0,2.0,76,0.00,,,0.03,weatherlink.com 1.10,2013-08-09 22:12:00,
2013-08-09 18:27:00,78.4,71.0,29.93,East,86,0.0,2.0,77,0.00,,,0.03,weatherlink.com 1.10,2013-08-09 22:27:00,
2013-08-09 18:42:00,78.3,71.0,29.94,West,262,0.0,1.0,78,0.00,,,0.03,weatherlink.com 1.10,2013-08-09 22:42:00,
2013-08-09 18:57:00,77.1,70.0,29.94,SSE,153,0.0,3.0,79,0.00,,,0.03,weatherlink.com 1.10,2013-08-09 22:57:00,
2013-08-09 19:12:00,76.4,71.0,29.94,SSE,153,0.0,0.0,82,0.00,,,0.03,weatherlink.com 1.10,2013-08-09 23:12:00,
2013-08-09 19:27:00,75.5,70.0,29.94,SW,229,0.0,3.0,82,0.00,,,0.03,weatherlink.com 1.10,2013-08-09 23:27:00,
2013-08-09 19:42:00,75.1,70.0,29.95,SW,233,0.0,0.0,84,0.00,,,0.03,weatherlink.com 1.10,2013-08-09 23:42:00,
2013-08-09 19:57:00,74.0,69.0,29.96,SW,233,0.0,1.0,85,0.00,,,0.03,weatherlink.com 1.10,2013-08-09 23:57:00,
2013-08-09 20:12:00,73.1,69.0,29.95,SW,233,0.0,0.0,88,0.00,,,0.03,weatherlink.com 1.10,2013-08-10 00:12:00,
2013-08-09 20:27:00,72.0,69.0,29.96,SW,233,0.0,1.0,89,0.00,,,0.03,weatherlink.com 1.10,2013-08-10 00:27:00,
2013-08-09 20:42:00,70.9,68.0,29.96,SW,233,0.0,1.0,90,0.00,,,0.03,weatherlink.com 1.10,2013-08-10 00:42:00,
2013-08-09 20:57:00,69.9,67.0,29.97,SW,233,0.0,0.0,91,0.00,,,0.03,weatherlink.com 1.10,2013-08-10 00:57:00,
2013-08-09 21:12:00,69.0,67.0,29.98,SW,233,0.0,0.0,92,0.00,,,0.03,weatherlink.com 1.10,2013-08-10 01:12:00,
2013-08-09 21:27:00,68.6,67.0,29.98,SW,233,0.0,0.0,93,0.00,,,0.03,weatherlink.com 1.10,2013-08-10 01:27:00,
2013-08-09 21:42:00,68.1,66.0,29.99,SW,233,0.0,0.0,93,0.00,,,0.03,weatherlink.com 1.10,2013-08-10 01:42:00,
2013-08-09 21:57:00,67.8,66.0,30.00,SW,233,0.0,0.0,94,0.00,,,0.03,weatherlink.com 1.10,2013-08-10 01:57:00,
2013-08-09 22:13:00,67.2,66.0,30.00,SW,233,0.0,0.0,94,0.00,,,0.03,weatherlink.com 1.10,2013-08-10 02:13:00,
2013-08-09 22:28:00,66.7,65.0,30.00,SW,233,0.0,0.0,94,0.00,,,0.03,weatherlink.com 1.10,2013-08-10 02:28:00,
2013-08-09 22:43:00,66.2,65.0,30.00,SW,233,0.0,0.0,95,0.00,,,0.03,weatherlink.com 1.10,2013-08-10 02:43:00,
2013-08-09 22:58:00,66.0,65.0,30.01,SW,233,0.0,0.0,95,0.00,,,0.03,weatherlink.com 1.10,2013-08-10 02:58:00,
2013-08-09 23:13:00,65.5,64.0,30.01,SW,233,0.0,0.0,95,0.00,,,0.03,weatherlink.com 1.10,2013-08-10 03:13:00,
2013-08-09 23:28:00,65.4,64.0,30.02,SW,233,0.0,0.0,95,0.00,,,0.03,weatherlink.com 1.10,2013-08-10 03:28:00,
2013-08-09 23:43:00,64.9,64.0,30.02,SW,233,0.0,0.0,95,0.00,,,0.03,weatherlink.com 1.10,2013-08-10 03:43:00,
2013-08-09 23:58:00,64.5,63.0,30.02,SW,233,0.0,0.0,95,0.00,,,0.03,weatherlink.com 1.10,2013-08-10 03:58:00,